Boden, Illinois
Current Conditions -  °F | °C
As of 6:52 AM on Wednesday 22 Oct 2014 (Local Time) from KMLI Reporting Station
Clear Clear  
Wind Chill: 34°   Ceiling: Unl
Heat Index: 34°   Visibility: 9mi
Dew Point: 31°   Wind: 3mph
Humidity: 89%   Direction: 90°E
Pressure: 30.32"   Gusts: NA
Location:  41.2864°N, 90.4945°W
Report Text: KMLI 221152Z 09003KT 9SM CLR 01/M01 A3032 RMK AO2 SLP271 T00111006 10028 21006 53010 $
Loading
Personal Weather Stations






























Interactive Weather Map New forecast layout! Learn more

10-Day Weather Forecast

Advertisements
Track Severe Weather on mobile